createdAt,value
2022-11-19T00:00:31.222Z,27.85
2022-11-19T00:02:04.555Z,29.13
2022-11-19T00:03:39.327Z,29.75
2022-11-19T00:05:12.504Z,29.83
2022-11-19T00:06:45.625Z,26.58
2022-11-19T00:08:20.966Z,30.25
2022-11-19T00:09:54.084Z,25.45
2022-11-19T00:11:46.349Z,24.50
2022-11-19T00:13:20.959Z,22.95
2022-11-19T00:14:53.208Z,22.95
2022-11-19T00:16:26.317Z,25.60
2022-11-19T00:18:00.523Z,23.88
2022-11-19T00:19:33.741Z,24.48
2022-11-19T00:21:08.689Z,23.73
2022-11-19T00:22:42.788Z,22.65
2022-11-19T00:24:16.041Z,23.00
2022-11-19T00:25:49.296Z,22.42
2022-11-19T00:27:22.622Z,24.08
2022-11-19T00:28:57.242Z,24.30
2022-11-19T00:30:47.609Z,23.50
2022-11-19T00:32:21.733Z,23.80
2022-11-19T00:33:55.790Z,22.75
2022-11-19T00:35:27.923Z,24.30
2022-11-19T00:37:01.319Z,22.58
2022-11-19T00:38:34.984Z,20.25
2022-11-19T00:40:11.924Z,19.77
2022-11-19T00:41:45.103Z,20.63
2022-11-19T00:43:35.983Z,22.00
2022-11-19T00:45:11.748Z,22.58
2022-11-19T00:46:44.974Z,22.63
2022-11-19T00:48:17.282Z,25.73
2022-11-19T00:49:50.617Z,22.90
2022-11-19T00:51:24.110Z,22.95
2022-11-19T00:52:57.383Z,23.17
2022-11-19T00:54:30.533Z,21.25
2022-11-19T00:56:04.822Z,21.75
2022-11-19T00:57:38.000Z,19.83
2022-11-19T00:59:11.578Z,19.02
2022-11-19T01:00:45.274Z,20.10
2022-11-19T01:02:18.728Z,16.92
2022-11-19T01:03:52.183Z,17.92
2022-11-19T01:05:25.594Z,19.00
2022-11-19T01:06:58.763Z,15.60
2022-11-19T01:08:31.625Z,15.90
2022-11-19T01:10:05.278Z,16.38
2022-11-19T01:11:39.722Z,16.48
2022-11-19T01:13:30.240Z,16.65
2022-11-19T01:15:03.488Z,16.90
2022-11-19T01:16:39.845Z,16.38
2022-11-19T01:18:13.127Z,14.50
2022-11-19T01:19:46.249Z,12.30
2022-11-19T01:21:21.266Z,14.20
2022-11-19T01:22:53.414Z,15.25
2022-11-19T01:24:26.629Z,15.02
2022-11-19T01:25:59.738Z,15.70
2022-11-19T01:27:33.090Z,15.15
2022-11-19T01:29:06.262Z,15.23
2022-11-19T01:30:40.886Z,14.82
2022-11-19T01:32:15.371Z,14.88
2022-11-19T01:33:49.542Z,16.23
2022-11-19T01:35:21.720Z,13.77
2022-11-19T01:36:55.025Z,14.30
2022-11-19T01:38:28.178Z,13.73
2022-11-19T01:40:01.461Z,14.00
2022-11-19T01:41:35.008Z,13.50
2022-11-19T01:43:10.962Z,12.65
2022-11-19T01:45:03.622Z,12.63
2022-11-19T01:46:39.813Z,12.65
2022-11-19T01:48:18.922Z,13.48
2022-11-19T01:49:52.510Z,13.35
2022-11-19T01:51:30.482Z,15.20
2022-11-19T01:53:02.831Z,13.65
2022-11-19T01:54:40.269Z,14.50
2022-11-19T01:56:13.427Z,14.48
2022-11-19T01:57:46.998Z,14.73
2022-11-19T01:59:21.093Z,15.93
2022-11-19T02:00:54.549Z,15.27
2022-11-19T02:02:26.898Z,13.25
2022-11-19T02:04:03.214Z,13.45
2022-11-19T02:05:37.386Z,15.15
2022-11-19T02:07:12.704Z,14.18
2022-11-19T02:08:47.529Z,13.60
2022-11-19T02:10:20.502Z,12.90
2022-11-19T02:12:10.738Z,13.15
2022-11-19T02:13:49.891Z,13.02
2022-11-19T02:15:33.503Z,14.35
2022-11-19T02:17:16.601Z,13.98
2022-11-19T02:18:55.953Z,15.05
2022-11-19T02:20:46.867Z,13.23
2022-11-19T02:22:38.393Z,13.52
2022-11-19T02:24:35.839Z,13.18
2022-11-19T02:26:50.335Z,12.10
2022-11-19T02:28:34.640Z,12.73
2022-11-19T02:30:11.149Z,13.57
2022-11-19T02:31:52.705Z,11.50
2022-11-19T02:33:35.387Z,11.73
2022-11-19T02:35:18.773Z,12.02
2022-11-19T02:36:59.184Z,14.60
2022-11-19T02:38:39.037Z,14.73
2022-11-19T02:40:19.338Z,15.18
2022-11-19T02:42:00.849Z,15.40
2022-11-19T02:43:41.129Z,14.27
2022-11-19T02:45:19.681Z,15.00
2022-11-19T02:46:55.071Z,13.60
2022-11-19T02:48:33.950Z,13.60
2022-11-19T02:50:11.794Z,14.07
2022-11-19T02:51:49.212Z,14.57
2022-11-19T02:53:23.122Z,13.35
2022-11-19T02:54:55.753Z,15.23
2022-11-19T02:56:51.523Z,12.80
2022-11-19T02:58:38.972Z,17.77
2022-11-19T03:00:31.409Z,17.23
2022-11-19T03:02:25.115Z,16.98
2022-11-19T03:04:16.252Z,18.27
2022-11-19T03:05:54.727Z,21.00
2022-11-19T03:07:28.102Z,22.70
2022-11-19T03:09:02.160Z,21.02
2022-11-19T03:10:45.694Z,20.65
2022-11-19T03:12:29.902Z,73.88
2022-11-19T03:14:31.089Z,41.40
2022-11-19T03:16:27.392Z,25.48
2022-11-19T03:18:12.399Z,22.38
2022-11-19T03:19:51.686Z,20.73
2022-11-19T03:21:31.341Z,20.40
2022-11-19T03:23:09.964Z,20.98
2022-11-19T03:24:46.882Z,22.27
2022-11-19T03:26:24.819Z,20.35
2022-11-19T03:28:02.523Z,20.23
2022-11-19T03:29:39.844Z,20.30
2022-11-19T03:31:14.212Z,19.75
2022-11-19T03:32:52.608Z,18.67
2022-11-19T03:34:31.582Z,18.50
2022-11-19T03:36:09.900Z,19.17
2022-11-19T03:37:46.071Z,18.40
2022-11-19T03:39:21.994Z,20.42
2022-11-19T03:40:56.558Z,22.27
2022-11-19T03:42:30.827Z,20.92
2022-11-19T03:44:08.759Z,21.38
2022-11-19T03:45:45.058Z,19.55
2022-11-19T03:47:23.914Z,19.83
2022-11-19T03:48:58.755Z,20.85
2022-11-19T03:50:40.488Z,17.73
2022-11-19T03:52:16.269Z,19.27
2022-11-19T03:53:50.226Z,17.67
2022-11-19T03:55:29.570Z,19.85
2022-11-19T03:57:03.799Z,18.38
2022-11-19T03:58:39.852Z,20.75
2022-11-19T04:00:13.775Z,19.25
2022-11-19T04:01:52.034Z,20.33
2022-11-19T04:03:25.340Z,19.73
2022-11-19T04:04:57.496Z,18.48
2022-11-19T04:06:32.123Z,18.45
2022-11-19T04:08:05.542Z,17.75
2022-11-19T04:09:38.412Z,17.15
2022-11-19T04:12:50.410Z,16.02
2022-11-19T04:14:22.565Z,15.43
2022-11-19T04:15:55.887Z,46.13
2022-11-19T04:17:27.992Z,147.57
2022-11-19T04:19:01.197Z,68.40
2022-11-19T04:20:34.460Z,38.70
2022-11-19T04:22:09.250Z,19.45
2022-11-19T04:23:41.384Z,17.67
2022-11-19T04:25:14.615Z,14.73
2022-11-19T04:26:46.945Z,13.73
2022-11-19T04:28:20.233Z,13.05
2022-11-19T04:29:53.522Z,12.07
2022-11-19T04:31:26.709Z,10.85
2022-11-19T04:32:59.869Z,10.60
2022-11-19T04:34:33.106Z,9.73
2022-11-19T04:36:06.980Z,11.15
2022-11-19T04:37:41.547Z,10.95
2022-11-19T04:39:14.667Z,10.98
2022-11-19T04:40:47.346Z,10.20
2022-11-19T04:42:20.483Z,11.48
2022-11-19T04:43:52.667Z,11.25
2022-11-19T04:45:25.830Z,10.65
2022-11-19T04:46:59.788Z,10.52
2022-11-19T04:48:31.999Z,10.70
2022-11-19T04:50:05.686Z,10.77
2022-11-19T04:51:38.812Z,11.23
2022-11-19T04:53:12.543Z,13.75
2022-11-19T04:54:45.678Z,13.15
2022-11-19T04:56:17.951Z,14.55
2022-11-19T04:57:51.952Z,14.52
2022-11-19T04:59:25.326Z,15.15
2022-11-19T05:00:57.464Z,13.13
2022-11-19T05:02:30.707Z,12.07
2022-11-19T05:04:03.844Z,14.02
2022-11-19T05:05:36.159Z,12.60
2022-11-19T05:07:09.341Z,11.98
2022-11-19T05:08:43.918Z,12.18
2022-11-19T05:10:16.103Z,12.32
2022-11-19T05:11:49.458Z,13.75
2022-11-19T05:13:22.648Z,12.45
2022-11-19T05:14:55.855Z,11.77
2022-11-19T05:16:29.046Z,11.40
2022-11-19T05:18:01.346Z,9.90
2022-11-19T05:19:34.547Z,9.75
2022-11-19T05:21:07.962Z,10.63
2022-11-19T05:22:41.089Z,11.32
2022-11-19T05:24:15.781Z,14.10
2022-11-19T05:25:49.082Z,17.48
2022-11-19T05:27:21.310Z,39.33
2022-11-19T05:28:54.452Z,70.32
2022-11-19T05:30:26.686Z,11.48
2022-11-19T05:31:59.848Z,10.15
2022-11-19T05:33:34.546Z,9.63
2022-11-19T05:35:08.914Z,9.07
2022-11-19T05:36:42.306Z,9.18
2022-11-19T05:38:15.427Z,9.25
2022-11-19T05:39:49.991Z,9.07
2022-11-19T05:41:23.174Z,9.98
2022-11-19T05:42:56.477Z,10.00
2022-11-19T05:44:29.683Z,11.57
2022-11-19T05:46:03.292Z,12.88
2022-11-19T05:47:35.453Z,13.10
2022-11-19T05:49:08.762Z,11.57
2022-11-19T05:50:42.543Z,98.30
2022-11-19T05:52:14.731Z,82.47
2022-11-19T05:53:47.958Z,76.97
2022-11-19T05:55:22.696Z,113.05
2022-11-19T05:56:55.873Z,141.00
2022-11-19T05:58:29.194Z,134.35
2022-11-19T06:00:02.303Z,101.40
2022-11-19T06:01:45.436Z,103.15
2022-11-19T06:03:18.651Z,121.53
2022-11-19T06:04:50.840Z,136.05
2022-11-19T06:06:25.526Z,117.20
2022-11-19T06:07:59.138Z,92.13
2022-11-19T06:09:31.323Z,64.18
2022-11-19T06:11:06.007Z,33.85
2022-11-19T06:12:42.476Z,27.98
2022-11-19T06:14:22.145Z,31.92
2022-11-19T06:15:55.274Z,17.45
2022-11-19T06:17:28.487Z,26.10
2022-11-19T06:19:01.595Z,20.13
2022-11-19T06:20:34.886Z,29.27
2022-11-19T06:22:08.040Z,45.65
2022-11-19T06:23:41.258Z,24.65
2022-11-19T06:25:14.927Z,17.85
2022-11-19T06:26:49.682Z,18.30
2022-11-19T06:28:22.776Z,12.75
2022-11-19T06:29:56.485Z,20.88
2022-11-19T06:31:29.864Z,17.63
2022-11-19T06:33:03.162Z,11.68
2022-11-19T06:34:36.321Z,11.88
2022-11-19T06:36:10.430Z,14.73
2022-11-19T06:37:43.587Z,19.27
2022-11-19T06:39:17.316Z,22.67
2022-11-19T06:40:50.564Z,20.20
2022-11-19T06:42:37.412Z,13.13
2022-11-19T06:44:10.607Z,17.30
2022-11-19T06:45:43.842Z,12.63
2022-11-19T06:47:17.067Z,16.80
2022-11-19T06:48:50.327Z,74.90
2022-11-19T06:50:23.426Z,15.13
2022-11-19T06:51:55.739Z,11.57
2022-11-19T06:53:28.973Z,11.25
2022-11-19T06:55:02.365Z,10.05
2022-11-19T06:56:35.483Z,10.98
2022-11-19T06:58:10.591Z,11.60
2022-11-19T06:59:43.747Z,10.23
2022-11-19T07:01:17.053Z,8.55
2022-11-19T07:02:50.208Z,7.70
2022-11-19T07:04:23.617Z,7.20
2022-11-19T07:06:00.223Z,5.80
2022-11-19T07:07:33.428Z,6.25
2022-11-19T07:09:06.655Z,9.32
2022-11-19T07:10:40.033Z,7.55
2022-11-19T07:12:13.202Z,7.22
2022-11-19T07:14:00.209Z,7.18
2022-11-19T07:15:33.559Z,6.78
2022-11-19T07:17:07.011Z,6.50
2022-11-19T07:18:39.397Z,5.72
2022-11-19T07:20:12.911Z,5.50
2022-11-19T07:21:46.394Z,5.85
2022-11-19T07:23:20.396Z,7.53
2022-11-19T07:24:53.512Z,7.97
2022-11-19T07:26:27.052Z,5.57
2022-11-19T07:28:00.227Z,5.22
2022-11-19T07:29:34.855Z,6.15
2022-11-19T07:31:08.509Z,6.00
2022-11-19T07:32:41.837Z,4.97
2022-11-19T07:34:14.931Z,4.97
2022-11-19T07:35:48.256Z,6.68
2022-11-19T07:37:21.450Z,15.20
2022-11-19T07:38:54.611Z,11.25
2022-11-19T07:40:27.844Z,5.50
2022-11-19T07:42:18.871Z,3.60
2022-11-19T07:43:57.558Z,3.65
2022-11-19T07:45:32.131Z,3.55
2022-11-19T07:47:07.505Z,3.30
2022-11-19T07:48:40.929Z,3.30
2022-11-19T07:50:14.278Z,3.72
2022-11-19T07:51:47.712Z,3.90
2022-11-19T07:53:20.862Z,3.95
2022-11-19T07:54:54.280Z,7.53
2022-11-19T07:56:27.543Z,8.65
2022-11-19T07:58:00.860Z,6.78
2022-11-19T07:59:34.054Z,5.93
2022-11-19T08:01:13.077Z,5.93
2022-11-19T08:02:46.308Z,6.22
2022-11-19T08:04:19.529Z,4.22
2022-11-19T08:05:52.659Z,5.47
2022-11-19T08:07:26.132Z,4.38
2022-11-19T08:08:59.321Z,4.18
2022-11-19T08:10:32.541Z,3.90
2022-11-19T08:12:06.134Z,4.35
2022-11-19T08:13:40.529Z,4.45
2022-11-19T08:15:13.645Z,4.13
2022-11-19T08:17:05.549Z,3.30
2022-11-19T08:18:39.448Z,3.22
2022-11-19T08:20:13.057Z,4.38
2022-11-19T08:21:48.077Z,3.80
2022-11-19T08:23:21.478Z,4.50
2022-11-19T08:24:54.611Z,8.00
2022-11-19T08:26:28.072Z,3.50
2022-11-19T08:28:01.291Z,5.00
2022-11-19T08:29:34.544Z,7.95
2022-11-19T08:31:08.863Z,4.18
2022-11-19T08:32:43.592Z,3.80
2022-11-19T08:34:17.983Z,5.53
2022-11-19T08:35:55.773Z,94.35
2022-11-19T08:37:28.950Z,9.07
2022-11-19T08:39:04.119Z,3.80
2022-11-19T08:40:37.893Z,3.53
2022-11-19T08:42:28.748Z,2.90
2022-11-19T08:44:01.185Z,4.72
2022-11-19T08:45:36.145Z,2.75
2022-11-19T08:47:08.335Z,3.47
2022-11-19T08:48:42.929Z,2.00
2022-11-19T08:50:16.750Z,2.30
2022-11-19T08:51:50.272Z,2.00
2022-11-19T08:53:23.439Z,2.50
2022-11-19T08:54:56.618Z,2.88
2022-11-19T08:56:29.781Z,3.45
2022-11-19T08:58:03.720Z,3.30
2022-11-19T08:59:36.879Z,3.30
2022-11-19T09:01:11.591Z,2.40
2022-11-19T09:02:44.886Z,3.00
2022-11-19T09:04:19.860Z,1.90
2022-11-19T09:06:00.026Z,4.90
2022-11-19T09:07:33.342Z,2.72
2022-11-19T09:09:06.533Z,2.47
2022-11-19T09:10:39.967Z,2.20
2022-11-19T09:12:13.241Z,2.80
2022-11-19T09:13:46.577Z,2.30
2022-11-19T09:15:20.119Z,2.25
2022-11-19T09:16:53.523Z,2.10
2022-11-19T09:18:26.755Z,2.00
2022-11-19T09:20:01.452Z,1.80
2022-11-19T09:21:34.571Z,1.75
2022-11-19T09:23:08.043Z,2.20
2022-11-19T09:24:41.199Z,3.83
2022-11-19T09:26:17.099Z,2.78
2022-11-19T09:27:50.238Z,2.30
2022-11-19T09:29:23.602Z,2.67
2022-11-19T09:30:57.972Z,3.17
2022-11-19T09:32:31.189Z,2.30
2022-11-19T09:34:04.386Z,2.53
2022-11-19T09:35:39.547Z,3.47
2022-11-19T09:37:12.702Z,3.10
2022-11-19T09:38:46.241Z,2.88
2022-11-19T09:40:23.283Z,2.80
2022-11-19T09:42:02.397Z,2.90
2022-11-19T09:43:44.675Z,2.38
2022-11-19T09:45:23.689Z,2.10
2022-11-19T09:47:05.347Z,2.20
2022-11-19T09:48:40.299Z,2.30
2022-11-19T09:50:19.201Z,23.08
2022-11-19T09:51:58.593Z,4.60
2022-11-19T09:53:35.975Z,6.35
2022-11-19T09:55:19.962Z,3.03
2022-11-19T09:57:01.754Z,2.88
2022-11-19T09:58:41.574Z,3.20
2022-11-19T10:00:19.886Z,3.17
2022-11-19T10:01:53.793Z,2.78
2022-11-19T10:03:33.133Z,2.72
2022-11-19T10:05:08.124Z,2.40
2022-11-19T10:06:50.232Z,2.10
2022-11-19T10:08:37.741Z,2.42
2022-11-19T10:10:24.356Z,2.60
2022-11-19T10:12:12.420Z,1.85
2022-11-19T10:13:56.969Z,2.30
2022-11-19T10:15:38.197Z,2.35
2022-11-19T10:17:23.461Z,2.55
2022-11-19T10:19:07.781Z,2.03
2022-11-19T10:20:54.289Z,2.70
2022-11-19T10:22:36.062Z,2.22
2022-11-19T10:24:18.454Z,3.25
2022-11-19T10:25:59.770Z,2.40
2022-11-19T10:27:40.923Z,2.03
2022-11-19T10:29:18.281Z,2.50
2022-11-19T10:30:55.321Z,2.80
2022-11-19T10:32:33.495Z,2.53
2022-11-19T10:34:14.282Z,1.83
2022-11-19T10:35:51.896Z,2.28
2022-11-19T10:37:28.321Z,1.95
2022-11-19T10:39:08.440Z,2.28
2022-11-19T10:40:46.713Z,2.00
2022-11-19T10:42:24.394Z,2.17
2022-11-19T10:44:04.092Z,2.00
2022-11-19T10:45:37.508Z,1.73
2022-11-19T10:47:17.672Z,2.03
2022-11-19T10:48:53.515Z,2.10
2022-11-19T10:50:27.379Z,2.25
2022-11-19T10:52:00.689Z,8.27
2022-11-19T10:53:36.896Z,2.17
2022-11-19T10:55:18.585Z,1.65
2022-11-19T10:56:55.319Z,1.70
2022-11-19T10:58:33.595Z,2.00
2022-11-19T11:00:07.867Z,2.28
2022-11-19T11:01:44.573Z,1.98
2022-11-19T11:03:25.017Z,1.88
2022-11-19T11:05:12.463Z,7.18
2022-11-19T11:06:54.496Z,6.32
2022-11-19T11:08:27.724Z,5.82
2022-11-19T11:10:00.877Z,4.18
2022-11-19T11:11:48.994Z,3.33
2022-11-19T11:13:57.260Z,2.22
2022-11-19T11:15:30.494Z,2.20
2022-11-19T11:17:05.147Z,2.20
2022-11-19T11:18:40.832Z,1.85
2022-11-19T11:20:27.316Z,2.30
2022-11-19T11:22:01.386Z,2.67
2022-11-19T11:23:34.526Z,2.35
2022-11-19T11:25:20.616Z,3.80
2022-11-19T11:27:20.241Z,2.00
2022-11-19T11:29:01.363Z,2.05
2022-11-19T11:30:35.911Z,2.40
2022-11-19T11:32:28.581Z,1.92
2022-11-19T11:34:02.736Z,3.45
2022-11-19T11:35:38.784Z,3.53
2022-11-19T11:37:13.107Z,2.85
2022-11-19T11:38:48.895Z,2.55
2022-11-19T11:40:23.260Z,2.38
2022-11-19T11:42:06.607Z,1.83
2022-11-19T11:44:01.368Z,2.65
2022-11-19T11:45:38.382Z,2.50
2022-11-19T11:47:14.029Z,2.15
2022-11-19T11:48:50.394Z,1.83
2022-11-19T11:50:27.171Z,6.93
2022-11-19T11:52:08.437Z,6.82
2022-11-19T11:53:43.028Z,2.70
2022-11-19T11:55:31.731Z,2.83
2022-11-19T11:57:16.023Z,2.13
2022-11-19T11:58:49.272Z,2.20
2022-11-19T12:00:37.159Z,2.22
2022-11-19T12:02:21.180Z,2.65
2022-11-19T12:03:56.550Z,2.60
2022-11-19T12:05:35.447Z,2.40
2022-11-19T12:07:17.631Z,2.20
2022-11-19T12:08:58.952Z,2.33
2022-11-19T12:10:41.793Z,2.50
2022-11-19T12:12:24.635Z,2.05
2022-11-19T12:14:09.519Z,1.70
2022-11-19T12:15:55.520Z,1.85
2022-11-19T12:17:41.724Z,1.55
2022-11-19T12:19:32.509Z,1.83
2022-11-19T12:21:11.978Z,2.08
2022-11-19T12:23:10.526Z,4.45
2022-11-19T12:24:59.367Z,3.88
2022-11-19T12:26:42.264Z,2.45
2022-11-19T12:28:54.068Z,2.95
2022-11-19T12:30:33.460Z,1.45
2022-11-19T12:32:22.382Z,1.58
2022-11-19T12:34:12.076Z,1.95
2022-11-19T12:35:55.861Z,3.55
2022-11-19T12:37:48.109Z,2.97
2022-11-19T12:39:34.016Z,4.85
2022-11-19T12:41:54.153Z,5.28
2022-11-19T12:43:52.703Z,3.58
2022-11-19T12:45:38.059Z,1.90
2022-11-19T12:47:23.539Z,2.22
2022-11-19T12:49:16.853Z,2.38
2022-11-19T12:50:58.588Z,1.95
2022-11-19T12:52:54.948Z,2.05
2022-11-19T12:54:42.705Z,1.33
2022-11-19T12:56:31.499Z,1.50
2022-11-19T12:58:16.123Z,1.60
2022-11-19T13:00:14.027Z,2.42
2022-11-19T13:01:51.347Z,2.00
2022-11-19T13:03:37.659Z,2.47
2022-11-19T13:05:15.938Z,2.50
2022-11-19T13:06:53.300Z,2.75
2022-11-19T13:08:33.672Z,3.00
2022-11-19T13:10:14.744Z,2.33
2022-11-19T13:11:54.579Z,3.03
2022-11-19T13:13:30.848Z,2.97
2022-11-19T13:15:07.663Z,3.05
2022-11-19T13:16:42.866Z,3.38
2022-11-19T13:18:18.901Z,3.95
2022-11-19T13:19:57.341Z,3.15
2022-11-19T13:21:36.560Z,3.13
2022-11-19T13:23:16.860Z,3.65
2022-11-19T13:24:55.751Z,3.72
2022-11-19T13:26:33.195Z,3.03
2022-11-19T13:28:15.898Z,2.33
2022-11-19T13:29:54.240Z,2.45
2022-11-19T13:31:34.543Z,2.60
2022-11-19T13:33:15.356Z,2.38
2022-11-19T13:35:02.781Z,2.53
2022-11-19T13:36:42.899Z,3.15
2022-11-19T13:38:23.572Z,3.05
2022-11-19T13:40:04.433Z,3.03
2022-11-19T13:42:01.699Z,2.33
2022-11-19T13:43:53.388Z,3.20
2022-11-19T13:45:26.832Z,3.53
2022-11-19T13:47:01.794Z,3.80
2022-11-19T13:48:39.741Z,4.57
2022-11-19T13:50:19.645Z,6.80
2022-11-19T13:51:56.926Z,6.78
2022-11-19T13:53:35.564Z,6.18
2022-11-19T13:55:27.845Z,5.88
2022-11-19T13:57:02.500Z,5.50
2022-11-19T13:58:38.567Z,6.63
2022-11-19T14:00:24.855Z,8.43
2022-11-19T14:02:27.498Z,9.10
2022-11-19T14:04:26.871Z,10.32
2022-11-19T14:06:32.514Z,11.60
2022-11-19T14:08:26.949Z,8.00
2022-11-19T14:10:09.494Z,7.40
2022-11-19T14:12:10.825Z,4.55
2022-11-19T14:14:01.796Z,4.32
2022-11-19T14:16:03.227Z,4.38
2022-11-19T14:18:01.419Z,8.35
2022-11-19T14:20:07.674Z,7.10
2022-11-19T14:22:22.549Z,7.47
2022-11-19T14:24:27.634Z,5.15
2022-11-19T14:26:21.949Z,3.22
2022-11-19T14:27:55.193Z,3.65
2022-11-19T14:29:58.709Z,3.67
2022-11-19T14:31:31.977Z,3.35
2022-11-19T14:33:43.751Z,10.52
2022-11-19T14:35:40.144Z,2.60
2022-11-19T14:37:18.472Z,2.88
2022-11-19T14:38:55.459Z,3.50
2022-11-19T14:40:31.138Z,2.63
2022-11-19T14:42:15.112Z,2.75
2022-11-19T14:44:08.432Z,2.08
2022-11-19T14:45:41.667Z,2.95
2022-11-19T14:47:36.201Z,2.17
2022-11-19T14:49:24.637Z,2.33
2022-11-19T14:51:06.303Z,2.50
2022-11-19T14:52:50.593Z,2.20
2022-11-19T14:54:40.991Z,2.45
2022-11-19T14:56:15.703Z,4.55
2022-11-19T14:57:57.875Z,12.00
2022-11-19T14:59:35.646Z,3.33
2022-11-19T15:01:16.747Z,3.97
2022-11-19T15:02:55.370Z,6.13
2022-11-19T15:04:33.670Z,6.32
2022-11-19T15:06:09.481Z,3.40
2022-11-19T15:07:45.608Z,2.75
2022-11-19T15:09:52.817Z,2.85
2022-11-19T15:11:46.259Z,3.53
2022-11-19T15:13:28.263Z,2.85
2022-11-19T15:15:32.756Z,2.40
2022-11-19T15:17:07.510Z,3.40
2022-11-19T15:19:17.386Z,3.65
2022-11-19T15:21:12.152Z,4.30
2022-11-19T15:22:55.634Z,3.17
2022-11-19T15:24:42.708Z,3.28
2022-11-19T15:26:22.949Z,5.80
2022-11-19T15:28:03.748Z,4.75
2022-11-19T15:29:58.211Z,7.07
2022-11-19T15:31:45.483Z,7.35
2022-11-19T15:33:43.312Z,11.48
2022-11-19T15:35:57.193Z,10.13
2022-11-19T15:37:40.876Z,8.25
2022-11-19T15:39:18.666Z,8.02
2022-11-19T15:40:56.301Z,7.07
2022-11-19T15:42:35.904Z,6.18
2022-11-19T15:44:14.228Z,5.50
2022-11-19T15:45:53.352Z,5.45
2022-11-19T15:47:34.855Z,15.85
2022-11-19T15:49:15.704Z,6.15
2022-11-19T15:50:49.748Z,6.07
2022-11-19T15:52:27.448Z,9.30
2022-11-19T15:54:04.147Z,8.65
2022-11-19T15:55:37.907Z,9.05
2022-11-19T15:57:23.418Z,8.80
2022-11-19T15:58:57.383Z,8.40
2022-11-19T16:00:30.568Z,10.95
2022-11-19T16:02:07.186Z,12.07
2022-11-19T16:03:41.047Z,13.48
2022-11-19T16:05:21.270Z,9.70
2022-11-19T16:06:55.923Z,11.55
2022-11-19T16:08:29.890Z,14.88
2022-11-19T16:10:05.801Z,5.63
2022-11-19T16:11:56.848Z,6.35
2022-11-19T16:13:47.761Z,8.38
2022-11-19T16:15:41.415Z,7.85
2022-11-19T16:17:43.181Z,5.20
2022-11-19T16:19:19.055Z,4.75
2022-11-19T16:20:53.911Z,4.25
2022-11-19T16:22:27.392Z,2.85
2022-11-19T16:24:16.243Z,3.67
2022-11-19T16:25:51.917Z,5.20
2022-11-19T16:27:26.489Z,6.13
2022-11-19T16:29:02.681Z,4.07
2022-11-19T16:30:47.023Z,6.38
2022-11-19T16:32:22.406Z,10.63
2022-11-19T16:33:56.047Z,6.28
2022-11-19T16:35:31.652Z,8.68
2022-11-19T16:37:04.939Z,10.13
2022-11-19T16:38:40.529Z,10.35
2022-11-19T16:40:16.957Z,7.18
2022-11-19T16:42:14.307Z,5.93
2022-11-19T16:43:49.665Z,5.45
2022-11-19T16:45:25.188Z,5.40
2022-11-19T16:47:05.308Z,5.93
2022-11-19T16:49:03.585Z,5.20
2022-11-19T16:50:41.139Z,5.43
2022-11-19T16:52:42.380Z,6.68
2022-11-19T16:54:46.687Z,4.53
2022-11-19T16:56:20.227Z,4.22
2022-11-19T16:57:56.570Z,6.10
2022-11-19T16:59:29.859Z,5.93
2022-11-19T17:01:04.074Z,4.45
2022-11-19T17:02:40.706Z,5.05
2022-11-19T17:04:15.607Z,4.82
2022-11-19T17:05:52.002Z,5.03
2022-11-19T17:07:27.946Z,4.50
2022-11-19T17:09:02.349Z,3.72
2022-11-19T17:10:35.530Z,6.65
2022-11-19T17:12:25.109Z,5.32
2022-11-19T17:14:00.096Z,7.35
2022-11-19T17:15:36.893Z,9.48
2022-11-19T17:17:40.952Z,12.75
2022-11-19T17:19:16.859Z,13.40
2022-11-19T17:20:55.268Z,31.15
2022-11-19T17:22:32.439Z,16.15
2022-11-19T17:24:06.467Z,11.43
2022-11-19T17:25:46.951Z,8.70
2022-11-19T17:27:28.093Z,7.53
2022-11-19T17:29:12.403Z,7.50
2022-11-19T17:30:49.263Z,5.22
2022-11-19T17:32:22.476Z,9.45
2022-11-19T17:33:57.327Z,2.35
2022-11-19T17:35:34.223Z,4.55
2022-11-19T17:37:10.027Z,5.93
2022-11-19T17:38:43.282Z,3.05
2022-11-19T17:40:16.615Z,1.80
2022-11-19T17:42:07.476Z,2.05
2022-11-19T17:44:13.338Z,2.42
2022-11-19T17:45:47.938Z,2.95
2022-11-19T17:47:23.805Z,3.30
2022-11-19T17:48:58.062Z,3.33
2022-11-19T17:50:31.242Z,4.40
2022-11-19T17:52:04.579Z,4.85
2022-11-19T17:53:37.709Z,8.02
2022-11-19T17:55:18.936Z,5.15
2022-11-19T17:56:52.159Z,6.95
2022-11-19T17:58:25.561Z,6.45
2022-11-19T17:59:58.733Z,6.53
2022-11-19T18:01:33.432Z,10.95
2022-11-19T18:03:06.720Z,10.05
2022-11-19T18:04:39.900Z,6.13
2022-11-19T18:06:13.980Z,4.88
2022-11-19T18:07:47.491Z,3.60
2022-11-19T18:09:21.012Z,3.38
2022-11-19T18:10:54.416Z,3.47
2022-11-19T18:12:27.592Z,3.33
2022-11-19T18:14:03.217Z,3.33
2022-11-19T18:15:36.542Z,3.60
2022-11-19T18:17:13.478Z,2.83
2022-11-19T18:18:47.048Z,2.25
2022-11-19T18:20:20.287Z,2.88
2022-11-19T18:21:53.979Z,3.38
2022-11-19T18:23:27.164Z,2.72
2022-11-19T18:25:00.339Z,2.80
2022-11-19T18:26:33.609Z,3.05
2022-11-19T18:28:06.892Z,3.17
2022-11-19T18:29:40.076Z,3.13
2022-11-19T18:31:16.489Z,2.05
2022-11-19T18:32:51.167Z,2.97
2022-11-19T18:34:25.459Z,2.50
2022-11-19T18:35:58.637Z,5.85
2022-11-19T18:37:32.209Z,4.25
2022-11-19T18:39:05.519Z,3.63
2022-11-19T18:40:39.043Z,2.95
2022-11-19T18:42:12.975Z,2.92
2022-11-19T18:44:03.398Z,2.30
2022-11-19T18:45:36.688Z,2.85
2022-11-19T18:47:12.478Z,2.13
2022-11-19T18:48:47.299Z,3.47
2022-11-19T18:50:21.842Z,2.25
2022-11-19T18:51:56.678Z,3.08
2022-11-19T18:53:29.907Z,2.35
2022-11-19T18:55:03.144Z,2.03
2022-11-19T18:56:36.301Z,2.20
2022-11-19T18:58:09.605Z,3.90
2022-11-19T18:59:43.028Z,3.53
2022-11-19T19:01:17.286Z,3.20
2022-11-19T19:02:50.699Z,4.22
2022-11-19T19:04:25.616Z,5.10
2022-11-19T19:06:01.848Z,3.72
2022-11-19T19:07:35.939Z,2.75
2022-11-19T19:09:10.461Z,5.78
2022-11-19T19:10:43.695Z,6.05
2022-11-19T19:12:18.853Z,6.90
2022-11-19T19:13:52.064Z,10.13
2022-11-19T19:15:25.230Z,9.00
2022-11-19T19:16:58.610Z,8.63
2022-11-19T19:18:31.897Z,9.77
2022-11-19T19:20:08.069Z,9.52
2022-11-19T19:21:41.494Z,11.32
2022-11-19T19:23:14.788Z,7.43
2022-11-19T19:24:48.276Z,7.30
2022-11-19T19:26:22.073Z,7.60
2022-11-19T19:27:55.708Z,11.73
2022-11-19T19:29:29.181Z,19.42
2022-11-19T19:31:02.396Z,23.67
2022-11-19T19:32:35.770Z,10.75
2022-11-19T19:34:08.919Z,11.80
2022-11-19T19:35:44.000Z,14.20
2022-11-19T19:37:17.227Z,11.38
2022-11-19T19:38:50.740Z,8.32
2022-11-19T19:40:23.840Z,20.35
2022-11-19T19:41:57.085Z,22.65
2022-11-19T19:43:30.716Z,24.42
2022-11-19T19:45:03.989Z,10.57
2022-11-19T19:46:37.459Z,9.90
2022-11-19T19:48:10.765Z,10.02
2022-11-19T19:49:44.025Z,8.77
2022-11-19T19:51:20.696Z,9.70
2022-11-19T19:52:53.879Z,13.52
2022-11-19T19:54:27.187Z,16.67
2022-11-19T19:56:04.066Z,21.02
2022-11-19T19:57:37.448Z,26.80
2022-11-19T19:59:12.917Z,26.83
2022-11-19T20:00:45.139Z,34.28
2022-11-19T20:02:18.373Z,34.15
2022-11-19T20:03:54.683Z,26.63
2022-11-19T20:05:28.207Z,28.25
2022-11-19T20:07:02.872Z,28.45
2022-11-19T20:08:36.553Z,24.38
2022-11-19T20:10:10.480Z,14.57
2022-11-19T20:11:43.660Z,10.55
2022-11-19T20:13:28.532Z,10.55
2022-11-19T20:15:02.144Z,6.78
2022-11-19T20:16:36.201Z,6.35
2022-11-19T20:18:09.348Z,5.97
2022-11-19T20:19:42.705Z,5.18
2022-11-19T20:21:18.345Z,7.18
2022-11-19T20:22:53.131Z,5.60
2022-11-19T20:24:26.301Z,5.05
2022-11-19T20:26:00.647Z,4.47
2022-11-19T20:27:33.870Z,3.83
2022-11-19T20:29:08.924Z,4.68
2022-11-19T20:30:42.335Z,5.20
2022-11-19T20:32:15.810Z,6.38
2022-11-19T20:33:53.263Z,6.85
2022-11-19T20:35:26.551Z,7.65
2022-11-19T20:36:59.724Z,7.03
2022-11-19T20:38:36.423Z,8.43
2022-11-19T20:40:10.934Z,7.88
2022-11-19T20:42:01.619Z,8.07
2022-11-19T20:43:53.510Z,7.68
2022-11-19T20:45:26.861Z,7.95
2022-11-19T20:47:02.060Z,6.60
2022-11-19T20:48:35.340Z,7.63
2022-11-19T20:50:09.292Z,8.93
2022-11-19T20:51:43.115Z,8.27
2022-11-19T20:53:16.259Z,9.38
2022-11-19T20:54:51.307Z,7.80
2022-11-19T20:56:24.396Z,6.10
2022-11-19T20:57:57.651Z,5.57
2022-11-19T20:59:31.104Z,5.85
2022-11-19T21:01:06.269Z,7.35
2022-11-19T21:02:39.862Z,6.40
2022-11-19T21:04:13.427Z,4.45
2022-11-19T21:05:46.557Z,3.70
2022-11-19T21:07:19.992Z,5.10
2022-11-19T21:08:53.563Z,4.78
2022-11-19T21:10:28.301Z,4.15
2022-11-19T21:12:01.550Z,3.67
2022-11-19T21:13:34.934Z,3.70
2022-11-19T21:15:09.513Z,3.55
2022-11-19T21:16:42.805Z,3.35
2022-11-19T21:18:16.111Z,3.42
2022-11-19T21:19:49.412Z,4.68
2022-11-19T21:21:24.529Z,5.90
2022-11-19T21:22:58.031Z,8.00
2022-11-19T21:24:31.231Z,7.00
2022-11-19T21:26:08.272Z,11.90
2022-11-19T21:27:41.451Z,26.33